createdAt,value
2023-03-06T00:01:39.392Z,23.40
2023-03-06T00:12:03.928Z,22.30
2023-03-06T00:22:28.160Z,18.50
2023-03-06T00:32:53.432Z,15.90
2023-03-06T00:43:17.839Z,13.10
2023-03-06T00:53:43.020Z,12.30
2023-03-06T01:04:07.498Z,13.70
2023-03-06T01:14:31.751Z,11.40
2023-03-06T01:24:55.928Z,14.60
2023-03-06T01:35:20.165Z,15.30
2023-03-06T01:46:20.818Z,15.50
2023-03-06T01:56:47.306Z,15.40
2023-03-06T02:07:11.990Z,18.60
2023-03-06T02:17:36.620Z,19.60
2023-03-06T02:28:01.219Z,17.30
2023-03-06T02:38:28.464Z,15.30
2023-03-06T02:48:52.698Z,16.50
2023-03-06T02:59:16.879Z,15.90
2023-03-06T03:09:41.046Z,14.80
2023-03-06T03:20:08.928Z,14.60
2023-03-06T03:30:33.170Z,15.70
2023-03-06T03:40:58.413Z,16.20
2023-03-06T03:51:22.614Z,12.90
2023-03-06T04:01:46.866Z,12.40
2023-03-06T04:12:11.167Z,12.10
2023-03-06T04:22:35.510Z,12.40
2023-03-06T04:32:59.897Z,15.20
2023-03-06T04:43:24.231Z,22.80
2023-03-06T04:53:48.527Z,19.80
2023-03-06T05:04:12.907Z,21.10
2023-03-06T05:14:37.691Z,20.00
2023-03-06T05:25:04.528Z,23.20
2023-03-06T05:35:29.341Z,36.40
2023-03-06T05:46:01.682Z,18.00
2023-03-06T05:56:25.941Z,16.90
2023-03-06T06:06:53.783Z,14.90
2023-03-06T06:17:18.069Z,9.10
2023-03-06T06:27:42.627Z,8.00
2023-03-06T06:38:06.874Z,8.10
2023-03-06T06:48:31.728Z,8.70
2023-03-06T06:59:14.019Z,9.70
2023-03-06T07:09:40.168Z,5.90
2023-03-06T07:20:06.504Z,7.60
2023-03-06T07:30:30.741Z,6.70
2023-03-06T07:40:55.226Z,5.40
2023-03-06T07:51:21.712Z,7.30
2023-03-06T08:01:46.139Z,7.10
2023-03-06T08:12:10.687Z,6.30
2023-03-06T08:22:35.947Z,46.40
2023-03-06T08:33:00.811Z,7.30
2023-03-06T08:43:25.973Z,12.60
2023-03-06T08:53:52.032Z,6.50
2023-03-06T09:04:17.089Z,6.20
2023-03-06T09:14:41.906Z,9.30
2023-03-06T09:25:09.114Z,6.40
2023-03-06T09:35:33.331Z,7.30
2023-03-06T09:45:58.669Z,5.70
2023-03-06T09:56:30.497Z,12.60
2023-03-06T10:07:00.226Z,7.20
2023-03-06T10:17:26.209Z,5.50
2023-03-06T10:27:58.435Z,4.90
2023-03-06T10:38:25.424Z,3.80
2023-03-06T10:49:22.213Z,3.30
2023-03-06T10:59:53.304Z,3.50
2023-03-06T11:10:19.657Z,3.30
2023-03-06T11:20:52.343Z,4.10
2023-03-06T11:31:21.715Z,2.60
2023-03-06T11:52:21.772Z,3.20
2023-03-06T12:03:22.254Z,1.80
2023-03-06T12:14:14.475Z,2.20
2023-03-06T12:24:58.569Z,3.50
2023-03-06T12:35:57.761Z,1.80
2023-03-06T12:46:24.378Z,2.00
2023-03-06T12:56:51.135Z,2.80
2023-03-06T13:07:28.860Z,2.60
2023-03-06T13:17:53.247Z,4.90
2023-03-06T13:28:39.024Z,5.20
2023-03-06T13:39:08.709Z,3.10
2023-03-06T13:49:34.741Z,3.60
2023-03-06T14:00:28.796Z,3.70
2023-03-06T14:11:02.137Z,3.20
2023-03-06T14:21:30.480Z,3.30
2023-03-06T14:31:56.399Z,2.70
2023-03-06T14:42:23.553Z,3.00
2023-03-06T14:52:48.948Z,2.70
2023-03-06T15:03:17.784Z,4.20
2023-03-06T15:13:42.699Z,6.20
2023-03-06T15:24:31.145Z,7.60
2023-03-06T15:35:25.674Z,8.00
2023-03-06T15:45:50.142Z,6.90
2023-03-06T15:56:14.936Z,6.60
2023-03-06T16:06:39.468Z,7.40
2023-03-06T16:17:04.135Z,7.60
2023-03-06T16:27:28.918Z,17.00
2023-03-06T16:37:54.330Z,6.80
2023-03-06T16:48:19.172Z,9.10
2023-03-06T16:58:44.499Z,11.20
2023-03-06T17:09:10.244Z,12.80
2023-03-06T17:19:35.086Z,24.70
2023-03-06T17:30:00.939Z,14.50
2023-03-06T17:40:25.224Z,13.80
2023-03-06T17:50:54.364Z,13.10
2023-03-06T18:01:20.766Z,13.00
2023-03-06T18:11:46.133Z,12.00
2023-03-06T18:22:10.316Z,12.90
2023-03-06T18:32:35.954Z,13.20
2023-03-06T18:43:01.099Z,13.10
2023-03-06T18:53:25.468Z,12.20
2023-03-06T19:03:50.780Z,11.70
2023-03-06T19:14:16.192Z,10.60
2023-03-06T19:24:41.022Z,10.90
2023-03-06T19:35:09.916Z,10.00
2023-03-06T19:45:34.180Z,12.10
2023-03-06T19:56:04.765Z,11.50
2023-03-06T20:06:30.741Z,12.60
2023-03-06T20:16:54.941Z,12.60
2023-03-06T20:27:21.792Z,12.00
2023-03-06T20:37:45.979Z,12.60
2023-03-06T20:48:10.833Z,14.20
2023-03-06T20:58:35.844Z,15.00
2023-03-06T21:09:01.947Z,13.80
2023-03-06T21:19:26.857Z,12.70
2023-03-06T21:29:51.687Z,10.80
2023-03-06T21:40:16.564Z,13.30
2023-03-06T21:50:42.128Z,11.40
2023-03-06T22:01:10.900Z,12.70
2023-03-06T22:11:36.850Z,13.10
2023-03-06T22:22:01.704Z,14.20
2023-03-06T22:32:26.825Z,16.60
2023-03-06T22:42:51.712Z,14.00
2023-03-06T22:53:16.750Z,14.50
2023-03-06T23:03:43.136Z,13.60
2023-03-06T23:14:07.886Z,14.30
2023-03-06T23:24:35.902Z,12.10
2023-03-06T23:35:01.027Z,12.20
2023-03-06T23:45:25.390Z,15.80
2023-03-06T23:55:50.872Z,13.80
